sensor_id;sensor_type;location;lat;lon;timestamp;temperature;humidity
50570;DHT22;36525;49.398;7.614;2023-08-31T00:01:01;12.60;99.90
50570;DHT22;36525;49.398;7.614;2023-08-31T00:03:31;12.50;99.90
50570;DHT22;36525;49.398;7.614;2023-08-31T00:06:01;12.50;99.90
50570;DHT22;36525;49.398;7.614;2023-08-31T00:08:34;12.50;99.90
50570;DHT22;36525;49.398;7.614;2023-08-31T00:11:04;12.50;99.90
50570;DHT22;36525;49.398;7.614;2023-08-31T00:13:34;12.50;99.90
50570;DHT22;36525;49.398;7.614;2023-08-31T00:16:02;12.50;99.90
50570;DHT22;36525;49.398;7.614;2023-08-31T00:18:29;12.50;99.90
50570;DHT22;36525;49.398;7.614;2023-08-31T00:20:56;12.50;99.90
50570;DHT22;36525;49.398;7.614;2023-08-31T00:23:25;12.50;99.90
50570;DHT22;36525;49.398;7.614;2023-08-31T00:25:52;12.50;99.90
50570;DHT22;36525;49.398;7.614;2023-08-31T00:28:20;12.50;99.90
50570;DHT22;36525;49.398;7.614;2023-08-31T00:30:48;12.50;99.90
50570;DHT22;36525;49.398;7.614;2023-08-31T00:33:16;12.50;99.90
50570;DHT22;36525;49.398;7.614;2023-08-31T00:35:43;12.50;99.90
50570;DHT22;36525;49.398;7.614;2023-08-31T00:38:13;12.40;99.90
50570;DHT22;36525;49.398;7.614;2023-08-31T00:40:44;12.40;99.90
50570;DHT22;36525;49.398;7.614;2023-08-31T00:43:15;12.40;99.90
50570;DHT22;36525;49.398;7.614;2023-08-31T00:45:43;12.30;99.90
50570;DHT22;36525;49.398;7.614;2023-08-31T00:48:12;12.30;99.90
50570;DHT22;36525;49.398;7.614;2023-08-31T00:50:44;12.40;99.90
50570;DHT22;36525;49.398;7.614;2023-08-31T00:53:13;12.40;99.90
50570;DHT22;36525;49.398;7.614;2023-08-31T00:55:46;12.30;99.90
50570;DHT22;36525;49.398;7.614;2023-08-31T00:58:14;12.30;99.90
50570;DHT22;36525;49.398;7.614;2023-08-31T01:09:57;12.30;99.90
50570;DHT22;36525;49.398;7.614;2023-08-31T01:13:15;12.20;99.90
50570;DHT22;36525;49.398;7.614;2023-08-31T01:15:46;12.10;99.90
50570;DHT22;36525;49.398;7.614;2023-08-31T01:18:21;12.00;99.90
50570;DHT22;36525;49.398;7.614;2023-08-31T01:23:53;11.90;99.90
50570;DHT22;36525;49.398;7.614;2023-08-31T01:26:22;11.80;99.90
50570;DHT22;36525;49.398;7.614;2023-08-31T01:28:50;11.80;99.90
50570;DHT22;36525;49.398;7.614;2023-08-31T01:31:17;11.80;99.90
50570;DHT22;36525;49.398;7.614;2023-08-31T01:33:45;11.70;99.90
50570;DHT22;36525;49.398;7.614;2023-08-31T01:36:29;11.60;99.90
50570;DHT22;36525;49.398;7.614;2023-08-31T01:39:24;11.60;99.90
50570;DHT22;36525;49.398;7.614;2023-08-31T01:41:58;11.60;99.90
50570;DHT22;36525;49.398;7.614;2023-08-31T01:44:31;11.60;99.90
50570;DHT22;36525;49.398;7.614;2023-08-31T01:47:06;11.60;99.90
50570;DHT22;36525;49.398;7.614;2023-08-31T01:49:39;11.60;99.90
50570;DHT22;36525;49.398;7.614;2023-08-31T01:52:10;11.60;99.90
50570;DHT22;36525;49.398;7.614;2023-08-31T01:54:37;11.60;99.90
50570;DHT22;36525;49.398;7.614;2023-08-31T01:57:04;11.50;99.90
50570;DHT22;36525;49.398;7.614;2023-08-31T01:59:33;11.50;99.90
50570;DHT22;36525;49.398;7.614;2023-08-31T02:02:01;11.40;99.90
50570;DHT22;36525;49.398;7.614;2023-08-31T02:04:29;11.40;99.90
50570;DHT22;36525;49.398;7.614;2023-08-31T02:06:57;11.40;99.90
50570;DHT22;36525;49.398;7.614;2023-08-31T02:09:27;11.40;99.90
50570;DHT22;36525;49.398;7.614;2023-08-31T02:11:54;11.50;99.90
50570;DHT22;36525;49.398;7.614;2023-08-31T02:14:21;11.50;99.90
50570;DHT22;36525;49.398;7.614;2023-08-31T02:16:49;11.50;99.90
50570;DHT22;36525;49.398;7.614;2023-08-31T02:19:16;11.60;99.90
50570;DHT22;36525;49.398;7.614;2023-08-31T02:21:43;11.60;99.90
50570;DHT22;36525;49.398;7.614;2023-08-31T02:24:11;11.60;99.90
50570;DHT22;36525;49.398;7.614;2023-08-31T02:26:39;11.50;99.90
50570;DHT22;36525;49.398;7.614;2023-08-31T02:29:06;11.60;99.90
50570;DHT22;36525;49.398;7.614;2023-08-31T02:31:33;11.60;99.90
50570;DHT22;36525;49.398;7.614;2023-08-31T02:34:00;11.60;99.90
50570;DHT22;36525;49.398;7.614;2023-08-31T02:36:27;11.60;99.90
50570;DHT22;36525;49.398;7.614;2023-08-31T02:38:56;11.70;99.90
50570;DHT22;36525;49.398;7.614;2023-08-31T02:41:23;11.70;99.90
50570;DHT22;36525;49.398;7.614;2023-08-31T02:43:51;11.70;99.90
50570;DHT22;36525;49.398;7.614;2023-08-31T02:46:19;11.70;99.90
50570;DHT22;36525;49.398;7.614;2023-08-31T02:48:46;11.70;99.90
50570;DHT22;36525;49.398;7.614;2023-08-31T02:51:14;11.70;99.90
50570;DHT22;36525;49.398;7.614;2023-08-31T02:53:41;11.60;99.90
50570;DHT22;36525;49.398;7.614;2023-08-31T02:56:08;11.70;99.90
50570;DHT22;36525;49.398;7.614;2023-08-31T02:58:36;11.70;99.90
50570;DHT22;36525;49.398;7.614;2023-08-31T03:01:10;11.60;99.90
50570;DHT22;36525;49.398;7.614;2023-08-31T03:03:40;11.70;99.90
50570;DHT22;36525;49.398;7.614;2023-08-31T03:06:09;11.60;99.90
50570;DHT22;36525;49.398;7.614;2023-08-31T03:08:36;11.70;99.90
50570;DHT22;36525;49.398;7.614;2023-08-31T03:11:05;11.60;99.90
50570;DHT22;36525;49.398;7.614;2023-08-31T03:13:33;11.60;99.90
50570;DHT22;36525;49.398;7.614;2023-08-31T03:16:01;11.60;99.90
50570;DHT22;36525;49.398;7.614;2023-08-31T03:18:31;11.60;99.90
50570;DHT22;36525;49.398;7.614;2023-08-31T03:20:58;11.60;99.90
50570;DHT22;36525;49.398;7.614;2023-08-31T03:23:26;11.60;99.90
50570;DHT22;36525;49.398;7.614;2023-08-31T03:25:53;11.60;99.90
50570;DHT22;36525;49.398;7.614;2023-08-31T03:28:21;11.60;99.90
50570;DHT22;36525;49.398;7.614;2023-08-31T03:30:55;11.50;99.90
50570;DHT22;36525;49.398;7.614;2023-08-31T03:33:23;11.40;99.90
50570;DHT22;36525;49.398;7.614;2023-08-31T03:35:50;11.40;99.90
50570;DHT22;36525;49.398;7.614;2023-08-31T03:38:17;11.30;99.90
50570;DHT22;36525;49.398;7.614;2023-08-31T03:40:53;11.30;99.90
50570;DHT22;36525;49.398;7.614;2023-08-31T03:43:21;11.30;99.90
50570;DHT22;36525;49.398;7.614;2023-08-31T03:45:49;11.20;99.90
50570;DHT22;36525;49.398;7.614;2023-08-31T03:48:20;11.20;99.90
50570;DHT22;36525;49.398;7.614;2023-08-31T03:50:52;11.20;99.90
50570;DHT22;36525;49.398;7.614;2023-08-31T03:53:20;11.20;99.90
50570;DHT22;36525;49.398;7.614;2023-08-31T03:55:47;11.20;99.90
50570;DHT22;36525;49.398;7.614;2023-08-31T03:58:14;11.10;99.90
50570;DHT22;36525;49.398;7.614;2023-08-31T04:00:41;11.10;99.90
50570;DHT22;36525;49.398;7.614;2023-08-31T04:03:09;11.10;99.90
50570;DHT22;36525;49.398;7.614;2023-08-31T04:05:37;11.00;99.90
50570;DHT22;36525;49.398;7.614;2023-08-31T04:08:04;11.10;99.90
50570;DHT22;36525;49.398;7.614;2023-08-31T04:10:31;11.00;99.90
50570;DHT22;36525;49.398;7.614;2023-08-31T04:12:59;11.00;99.90
50570;DHT22;36525;49.398;7.614;2023-08-31T04:15:26;11.10;99.90
50570;DHT22;36525;49.398;7.614;2023-08-31T04:17:53;11.10;99.90
50570;DHT22;36525;49.398;7.614;2023-08-31T04:20:20;11.00;99.90
50570;DHT22;36525;49.398;7.614;2023-08-31T04:22:49;11.00;99.90
50570;DHT22;36525;49.398;7.614;2023-08-31T04:25:16;11.00;99.90
50570;DHT22;36525;49.398;7.614;2023-08-31T04:27:43;11.00;99.90
50570;DHT22;36525;49.398;7.614;2023-08-31T04:30:12;11.00;99.90
50570;DHT22;36525;49.398;7.614;2023-08-31T04:32:39;11.00;99.90
50570;DHT22;36525;49.398;7.614;2023-08-31T04:35:06;11.00;99.90
50570;DHT22;36525;49.398;7.614;2023-08-31T04:37:33;10.90;99.90
50570;DHT22;36525;49.398;7.614;2023-08-31T04:40:01;10.90;99.90
50570;DHT22;36525;49.398;7.614;2023-08-31T04:42:30;10.90;99.90
50570;DHT22;36525;49.398;7.614;2023-08-31T04:44:57;10.90;99.90
50570;DHT22;36525;49.398;7.614;2023-08-31T04:47:24;10.90;99.90
50570;DHT22;36525;49.398;7.614;2023-08-31T04:49:54;10.90;99.90
50570;DHT22;36525;49.398;7.614;2023-08-31T04:52:23;10.90;99.90
50570;DHT22;36525;49.398;7.614;2023-08-31T04:54:50;10.90;99.90
50570;DHT22;36525;49.398;7.614;2023-08-31T04:57:17;10.90;99.90
50570;DHT22;36525;49.398;7.614;2023-08-31T04:59:44;10.90;99.90
50570;DHT22;36525;49.398;7.614;2023-08-31T05:02:11;10.90;99.90
50570;DHT22;36525;49.398;7.614;2023-08-31T05:04:38;10.90;99.90
50570;DHT22;36525;49.398;7.614;2023-08-31T05:07:05;11.00;99.90
50570;DHT22;36525;49.398;7.614;2023-08-31T05:09:33;11.00;99.90
50570;DHT22;36525;49.398;7.614;2023-08-31T05:12:02;11.00;99.90
50570;DHT22;36525;49.398;7.614;2023-08-31T05:14:30;11.00;99.90
50570;DHT22;36525;49.398;7.614;2023-08-31T05:16:57;11.00;99.90
50570;DHT22;36525;49.398;7.614;2023-08-31T05:19:26;11.10;99.90
50570;DHT22;36525;49.398;7.614;2023-08-31T05:21:53;11.10;99.90
50570;DHT22;36525;49.398;7.614;2023-08-31T05:24:20;11.10;99.90
50570;DHT22;36525;49.398;7.614;2023-08-31T05:26:49;11.10;99.90
50570;DHT22;36525;49.398;7.614;2023-08-31T05:29:16;11.10;99.90
50570;DHT22;36525;49.398;7.614;2023-08-31T05:31:44;11.10;99.90
50570;DHT22;36525;49.398;7.614;2023-08-31T05:34:15;11.10;99.90
50570;DHT22;36525;49.398;7.614;2023-08-31T05:36:43;11.20;99.90
50570;DHT22;36525;49.398;7.614;2023-08-31T05:39:10;11.20;99.90
50570;DHT22;36525;49.398;7.614;2023-08-31T05:41:40;11.20;99.90
50570;DHT22;36525;49.398;7.614;2023-08-31T05:44:11;11.20;99.90
50570;DHT22;36525;49.398;7.614;2023-08-31T05:46:40;11.30;99.90
50570;DHT22;36525;49.398;7.614;2023-08-31T05:49:08;11.30;99.90
50570;DHT22;36525;49.398;7.614;2023-08-31T05:51:36;11.30;99.90
50570;DHT22;36525;49.398;7.614;2023-08-31T05:54:03;11.40;99.90
50570;DHT22;36525;49.398;7.614;2023-08-31T05:56:30;11.30;99.90
50570;DHT22;36525;49.398;7.614;2023-08-31T05:58:58;11.30;99.90
50570;DHT22;36525;49.398;7.614;2023-08-31T06:01:25;11.50;99.90
50570;DHT22;36525;49.398;7.614;2023-08-31T06:03:52;11.50;99.90
50570;DHT22;36525;49.398;7.614;2023-08-31T06:06:21;11.60;99.90
50570;DHT22;36525;49.398;7.614;2023-08-31T06:08:49;11.60;99.90
50570;DHT22;36525;49.398;7.614;2023-08-31T06:11:16;11.70;99.90
50570;DHT22;36525;49.398;7.614;2023-08-31T06:13:43;11.70;99.90
50570;DHT22;36525;49.398;7.614;2023-08-31T06:16:11;11.70;99.90
50570;DHT22;36525;49.398;7.614;2023-08-31T06:18:38;11.70;99.90
50570;DHT22;36525;49.398;7.614;2023-08-31T06:21:05;11.70;99.90
50570;DHT22;36525;49.398;7.614;2023-08-31T06:23:32;11.80;99.90
50570;DHT22;36525;49.398;7.614;2023-08-31T06:25:59;11.80;99.90
50570;DHT22;36525;49.398;7.614;2023-08-31T06:28:26;11.80;99.90
50570;DHT22;36525;49.398;7.614;2023-08-31T06:30:54;11.90;99.90
50570;DHT22;36525;49.398;7.614;2023-08-31T06:33:21;12.00;99.90
50570;DHT22;36525;49.398;7.614;2023-08-31T06:35:48;12.10;99.90
50570;DHT22;36525;49.398;7.614;2023-08-31T06:38:19;12.20;99.90
50570;DHT22;36525;49.398;7.614;2023-08-31T06:40:48;12.20;99.90
50570;DHT22;36525;49.398;7.614;2023-08-31T06:43:15;12.30;99.90
50570;DHT22;36525;49.398;7.614;2023-08-31T06:45:42;12.40;99.90
50570;DHT22;36525;49.398;7.614;2023-08-31T06:48:11;12.50;99.90
50570;DHT22;36525;49.398;7.614;2023-08-31T06:50:38;12.50;99.90
50570;DHT22;36525;49.398;7.614;2023-08-31T06:53:05;12.60;99.90
50570;DHT22;36525;49.398;7.614;2023-08-31T06:55:33;12.70;99.90
50570;DHT22;36525;49.398;7.614;2023-08-31T06:58:01;12.80;99.90
50570;DHT22;36525;49.398;7.614;2023-08-31T07:00:34;12.90;99.90
50570;DHT22;36525;49.398;7.614;2023-08-31T07:03:01;13.00;99.90
50570;DHT22;36525;49.398;7.614;2023-08-31T07:05:33;13.10;99.90
50570;DHT22;36525;49.398;7.614;2023-08-31T07:08:02;13.20;99.90
50570;DHT22;36525;49.398;7.614;2023-08-31T07:10:29;13.20;99.90
50570;DHT22;36525;49.398;7.614;2023-08-31T07:12:58;13.30;99.90
50570;DHT22;36525;49.398;7.614;2023-08-31T07:15:25;13.50;99.90
50570;DHT22;36525;49.398;7.614;2023-08-31T07:17:53;13.50;99.90
50570;DHT22;36525;49.398;7.614;2023-08-31T07:20:20;13.40;99.90
50570;DHT22;36525;49.398;7.614;2023-08-31T07:22:48;13.50;99.90
50570;DHT22;36525;49.398;7.614;2023-08-31T07:25:15;13.60;99.90
50570;DHT22;36525;49.398;7.614;2023-08-31T07:27:42;13.60;99.90
50570;DHT22;36525;49.398;7.614;2023-08-31T07:30:10;13.60;99.90
50570;DHT22;36525;49.398;7.614;2023-08-31T07:32:37;13.80;99.90
50570;DHT22;36525;49.398;7.614;2023-08-31T07:35:05;13.90;99.90
50570;DHT22;36525;49.398;7.614;2023-08-31T07:37:33;13.90;99.90
50570;DHT22;36525;49.398;7.614;2023-08-31T07:40:01;14.00;99.90
50570;DHT22;36525;49.398;7.614;2023-08-31T07:42:28;14.00;99.90
50570;DHT22;36525;49.398;7.614;2023-08-31T07:44:56;14.10;99.90
50570;DHT22;36525;49.398;7.614;2023-08-31T07:47:23;14.10;99.90
50570;DHT22;36525;49.398;7.614;2023-08-31T07:49:52;14.20;99.90
50570;DHT22;36525;49.398;7.614;2023-08-31T07:52:18;14.20;99.90
50570;DHT22;36525;49.398;7.614;2023-08-31T07:54:48;14.40;99.90
50570;DHT22;36525;49.398;7.614;2023-08-31T07:57:17;14.40;99.90
50570;DHT22;36525;49.398;7.614;2023-08-31T07:59:45;14.40;99.90
50570;DHT22;36525;49.398;7.614;2023-08-31T08:02:12;14.60;99.90
50570;DHT22;36525;49.398;7.614;2023-08-31T08:04:39;14.60;99.90
50570;DHT22;36525;49.398;7.614;2023-08-31T08:07:06;14.80;99.90
50570;DHT22;36525;49.398;7.614;2023-08-31T08:09:33;14.90;99.90
50570;DHT22;36525;49.398;7.614;2023-08-31T08:12:00;15.10;99.90
50570;DHT22;36525;49.398;7.614;2023-08-31T08:14:28;15.10;99.90
50570;DHT22;36525;49.398;7.614;2023-08-31T08:16:55;15.10;99.90
50570;DHT22;36525;49.398;7.614;2023-08-31T08:19:25;15.30;99.90
50570;DHT22;36525;49.398;7.614;2023-08-31T08:21:55;15.50;99.90
50570;DHT22;36525;49.398;7.614;2023-08-31T08:24:21;16.00;99.90
50570;DHT22;36525;49.398;7.614;2023-08-31T08:26:49;16.50;99.90
50570;DHT22;36525;49.398;7.614;2023-08-31T08:29:16;16.90;99.90
50570;DHT22;36525;49.398;7.614;2023-08-31T08:31:44;17.30;99.90
50570;DHT22;36525;49.398;7.614;2023-08-31T08:34:11;18.00;99.90
50570;DHT22;36525;49.398;7.614;2023-08-31T08:36:38;18.30;99.90
50570;DHT22;36525;49.398;7.614;2023-08-31T08:39:04;19.00;99.90
50570;DHT22;36525;49.398;7.614;2023-08-31T08:41:33;19.50;99.90
50570;DHT22;36525;49.398;7.614;2023-08-31T08:44:02;19.60;99.90
50570;DHT22;36525;49.398;7.614;2023-08-31T08:46:33;20.10;99.90
50570;DHT22;36525;49.398;7.614;2023-08-31T08:49:00;19.50;99.90
50570;DHT22;36525;49.398;7.614;2023-08-31T08:51:30;19.50;99.90
50570;DHT22;36525;49.398;7.614;2023-08-31T08:53:59;19.30;99.90
50570;DHT22;36525;49.398;7.614;2023-08-31T08:56:27;19.90;99.90
50570;DHT22;36525;49.398;7.614;2023-08-31T08:58:54;19.10;99.90
50570;DHT22;36525;49.398;7.614;2023-08-31T09:01:23;19.10;99.90
50570;DHT22;36525;49.398;7.614;2023-08-31T09:03:51;18.40;99.90
50570;DHT22;36525;49.398;7.614;2023-08-31T09:06:19;18.30;99.90
50570;DHT22;36525;49.398;7.614;2023-08-31T09:08:58;18.40;99.90
50570;DHT22;36525;49.398;7.614;2023-08-31T09:11:26;18.10;99.90
50570;DHT22;36525;49.398;7.614;2023-08-31T09:13:53;18.70;99.90
50570;DHT22;36525;49.398;7.614;2023-08-31T09:16:24;18.40;99.90
50570;DHT22;36525;49.398;7.614;2023-08-31T09:18:53;18.20;99.90
50570;DHT22;36525;49.398;7.614;2023-08-31T09:21:35;18.60;99.90
50570;DHT22;36525;49.398;7.614;2023-08-31T09:24:06;18.80;99.90
50570;DHT22;36525;49.398;7.614;2023-08-31T09:26:48;19.50;99.90
50570;DHT22;36525;49.398;7.614;2023-08-31T09:29:19;19.60;99.90
50570;DHT22;36525;49.398;7.614;2023-08-31T09:31:46;19.70;99.90
50570;DHT22;36525;49.398;7.614;2023-08-31T09:34:15;19.40;99.90
50570;DHT22;36525;49.398;7.614;2023-08-31T09:36:43;19.40;99.90
50570;DHT22;36525;49.398;7.614;2023-08-31T09:39:13;19.80;99.90
50570;DHT22;36525;49.398;7.614;2023-08-31T09:41:54;20.00;99.90
50570;DHT22;36525;49.398;7.614;2023-08-31T09:44:22;20.40;99.90
50570;DHT22;36525;49.398;7.614;2023-08-31T09:46:49;20.10;99.90
50570;DHT22;36525;49.398;7.614;2023-08-31T09:49:17;20.20;99.90
50570;DHT22;36525;49.398;7.614;2023-08-31T09:51:49;19.50;99.90
50570;DHT22;36525;49.398;7.614;2023-08-31T09:54:18;19.30;99.90
50570;DHT22;36525;49.398;7.614;2023-08-31T09:56:47;19.50;99.90
50570;DHT22;36525;49.398;7.614;2023-08-31T09:59:16;19.50;99.90
50570;DHT22;36525;49.398;7.614;2023-08-31T10:01:50;19.80;99.90
50570;DHT22;36525;49.398;7.614;2023-08-31T10:04:17;19.30;99.90
50570;DHT22;36525;49.398;7.614;2023-08-31T10:06:44;19.50;99.90
50570;DHT22;36525;49.398;7.614;2023-08-31T10:09:13;19.70;99.90
50570;DHT22;36525;49.398;7.614;2023-08-31T10:11:42;19.50;99.90
50570;DHT22;36525;49.398;7.614;2023-08-31T10:14:10;19.10;99.90
50570;DHT22;36525;49.398;7.614;2023-08-31T10:16:44;19.20;99.90
50570;DHT22;36525;49.398;7.614;2023-08-31T10:19:11;19.70;99.90
50570;DHT22;36525;49.398;7.614;2023-08-31T10:21:40;19.60;99.90
50570;DHT22;36525;49.398;7.614;2023-08-31T10:24:07;19.90;99.90
50570;DHT22;36525;49.398;7.614;2023-08-31T10:26:35;19.40;99.90
50570;DHT22;36525;49.398;7.614;2023-08-31T10:29:02;18.80;99.90
50570;DHT22;36525;49.398;7.614;2023-08-31T10:31:33;18.10;99.90
50570;DHT22;36525;49.398;7.614;2023-08-31T10:34:04;17.50;99.90
50570;DHT22;36525;49.398;7.614;2023-08-31T10:36:43;17.40;99.90
50570;DHT22;36525;49.398;7.614;2023-08-31T10:39:37;17.20;99.90
50570;DHT22;36525;49.398;7.614;2023-08-31T10:42:05;17.30;99.90
50570;DHT22;36525;49.398;7.614;2023-08-31T10:44:32;17.40;99.90
50570;DHT22;36525;49.398;7.614;2023-08-31T10:47:00;17.20;99.90
50570;DHT22;36525;49.398;7.614;2023-08-31T10:49:30;16.90;99.90
50570;DHT22;36525;49.398;7.614;2023-08-31T10:52:19;17.00;99.90
50570;DHT22;36525;49.398;7.614;2023-08-31T10:54:55;16.90;99.90
50570;DHT22;36525;49.398;7.614;2023-08-31T10:57:30;17.10;99.90
50570;DHT22;36525;49.398;7.614;2023-08-31T10:59:58;17.40;99.90
50570;DHT22;36525;49.398;7.614;2023-08-31T11:02:42;17.70;99.90
50570;DHT22;36525;49.398;7.614;2023-08-31T11:05:17;17.60;99.90
50570;DHT22;36525;49.398;7.614;2023-08-31T11:07:49;17.40;99.90
50570;DHT22;36525;49.398;7.614;2023-08-31T11:10:22;17.40;99.90
50570;DHT22;36525;49.398;7.614;2023-08-31T11:12:54;17.40;99.90
50570;DHT22;36525;49.398;7.614;2023-08-31T11:15:23;17.60;99.90
50570;DHT22;36525;49.398;7.614;2023-08-31T11:17:54;17.70;99.90
50570;DHT22;36525;49.398;7.614;2023-08-31T11:20:23;17.50;99.90
50570;DHT22;36525;49.398;7.614;2023-08-31T11:22:55;17.50;99.90
50570;DHT22;36525;49.398;7.614;2023-08-31T11:25:22;17.80;99.90
50570;DHT22;36525;49.398;7.614;2023-08-31T11:27:54;18.40;99.90
50570;DHT22;36525;49.398;7.614;2023-08-31T11:30:22;18.50;99.90
50570;DHT22;36525;49.398;7.614;2023-08-31T11:32:52;19.00;99.90
50570;DHT22;36525;49.398;7.614;2023-08-31T11:35:23;18.50;99.90
50570;DHT22;36525;49.398;7.614;2023-08-31T11:37:56;18.20;99.90
50570;DHT22;36525;49.398;7.614;2023-08-31T11:40:26;18.00;99.90
50570;DHT22;36525;49.398;7.614;2023-08-31T11:42:54;18.00;99.90
50570;DHT22;36525;49.398;7.614;2023-08-31T11:45:22;17.80;99.90
50570;DHT22;36525;49.398;7.614;2023-08-31T11:47:51;17.60;99.90
50570;DHT22;36525;49.398;7.614;2023-08-31T11:50:18;17.40;99.90
50570;DHT22;36525;49.398;7.614;2023-08-31T11:52:46;17.30;99.90
50570;DHT22;36525;49.398;7.614;2023-08-31T11:55:14;17.20;99.90
50570;DHT22;36525;49.398;7.614;2023-08-31T11:57:53;17.20;99.90
50570;DHT22;36525;49.398;7.614;2023-08-31T12:00:24;17.30;99.90
50570;DHT22;36525;49.398;7.614;2023-08-31T12:03:01;17.30;99.90
50570;DHT22;36525;49.398;7.614;2023-08-31T12:05:48;17.50;99.90
50570;DHT22;36525;49.398;7.614;2023-08-31T12:08:25;17.60;99.90
50570;DHT22;36525;49.398;7.614;2023-08-31T12:10:54;17.70;99.90
50570;DHT22;36525;49.398;7.614;2023-08-31T12:13:25;17.80;99.90
50570;DHT22;36525;49.398;7.614;2023-08-31T12:15:58;17.80;99.90
50570;DHT22;36525;49.398;7.614;2023-08-31T12:18:29;17.80;99.90
50570;DHT22;36525;49.398;7.614;2023-08-31T12:20:58;17.50;99.90
50570;DHT22;36525;49.398;7.614;2023-08-31T12:23:26;17.40;99.90
50570;DHT22;36525;49.398;7.614;2023-08-31T12:25:55;17.30;99.90
50570;DHT22;36525;49.398;7.614;2023-08-31T12:28:23;17.30;99.90
50570;DHT22;36525;49.398;7.614;2023-08-31T12:30:54;17.40;99.90
50570;DHT22;36525;49.398;7.614;2023-08-31T12:33:24;17.60;99.90
50570;DHT22;36525;49.398;7.614;2023-08-31T12:35:52;17.80;99.90
50570;DHT22;36525;49.398;7.614;2023-08-31T12:38:19;17.80;99.90
50570;DHT22;36525;49.398;7.614;2023-08-31T12:40:46;18.00;99.90
50570;DHT22;36525;49.398;7.614;2023-08-31T12:43:13;18.50;99.90
50570;DHT22;36525;49.398;7.614;2023-08-31T12:45:41;18.90;99.90
50570;DHT22;36525;49.398;7.614;2023-08-31T12:48:08;19.10;99.90
50570;DHT22;36525;49.398;7.614;2023-08-31T12:50:35;19.00;99.90
50570;DHT22;36525;49.398;7.614;2023-08-31T12:53:02;19.20;99.90
50570;DHT22;36525;49.398;7.614;2023-08-31T12:55:30;19.80;99.90
50570;DHT22;36525;49.398;7.614;2023-08-31T12:57:57;20.10;99.90
50570;DHT22;36525;49.398;7.614;2023-08-31T13:00:25;20.70;99.90
50570;DHT22;36525;49.398;7.614;2023-08-31T13:02:52;20.60;99.90
50570;DHT22;36525;49.398;7.614;2023-08-31T13:05:19;20.50;99.90
50570;DHT22;36525;49.398;7.614;2023-08-31T13:07:47;19.90;99.90
50570;DHT22;36525;49.398;7.614;2023-08-31T13:10:14;19.70;99.90
50570;DHT22;36525;49.398;7.614;2023-08-31T13:12:44;19.60;99.90
50570;DHT22;36525;49.398;7.614;2023-08-31T13:15:11;19.40;99.90
50570;DHT22;36525;49.398;7.614;2023-08-31T13:17:40;19.50;99.90
50570;DHT22;36525;49.398;7.614;2023-08-31T13:20:07;19.40;99.90
50570;DHT22;36525;49.398;7.614;2023-08-31T13:22:36;19.30;99.90
50570;DHT22;36525;49.398;7.614;2023-08-31T13:25:04;19.20;99.90
50570;DHT22;36525;49.398;7.614;2023-08-31T13:27:31;19.40;99.90
50570;DHT22;36525;49.398;7.614;2023-08-31T13:30:02;19.40;99.90
50570;DHT22;36525;49.398;7.614;2023-08-31T13:32:33;19.50;99.90
50570;DHT22;36525;49.398;7.614;2023-08-31T13:35:03;19.20;99.90
50570;DHT22;36525;49.398;7.614;2023-08-31T13:37:34;18.80;99.90
50570;DHT22;36525;49.398;7.614;2023-08-31T13:40:01;18.50;99.90
50570;DHT22;36525;49.398;7.614;2023-08-31T13:42:35;18.50;99.90
50570;DHT22;36525;49.398;7.614;2023-08-31T13:45:07;18.50;99.90
50570;DHT22;36525;49.398;7.614;2023-08-31T13:47:37;18.60;99.90
50570;DHT22;36525;49.398;7.614;2023-08-31T13:50:05;18.70;99.90
50570;DHT22;36525;49.398;7.614;2023-08-31T13:52:32;18.90;99.90
50570;DHT22;36525;49.398;7.614;2023-08-31T13:54:59;19.50;99.90
50570;DHT22;36525;49.398;7.614;2023-08-31T13:57:26;19.60;99.90
50570;DHT22;36525;49.398;7.614;2023-08-31T13:59:53;19.50;99.90
50570;DHT22;36525;49.398;7.614;2023-08-31T14:02:20;19.20;99.90
50570;DHT22;36525;49.398;7.614;2023-08-31T14:04:50;19.10;99.90
50570;DHT22;36525;49.398;7.614;2023-08-31T14:07:18;19.20;99.90
50570;DHT22;36525;49.398;7.614;2023-08-31T14:09:45;19.00;99.90
50570;DHT22;36525;49.398;7.614;2023-08-31T14:12:21;18.70;99.90
50570;DHT22;36525;49.398;7.614;2023-08-31T14:14:48;18.60;99.90
50570;DHT22;36525;49.398;7.614;2023-08-31T14:17:15;18.50;99.90
50570;DHT22;36525;49.398;7.614;2023-08-31T14:19:42;18.50;99.90
50570;DHT22;36525;49.398;7.614;2023-08-31T14:22:09;18.50;99.90
50570;DHT22;36525;49.398;7.614;2023-08-31T14:24:38;18.60;99.90
50570;DHT22;36525;49.398;7.614;2023-08-31T14:27:05;18.60;99.90
50570;DHT22;36525;49.398;7.614;2023-08-31T14:29:34;18.40;99.90
50570;DHT22;36525;49.398;7.614;2023-08-31T14:32:01;18.20;99.90
50570;DHT22;36525;49.398;7.614;2023-08-31T14:34:28;18.50;99.90
50570;DHT22;36525;49.398;7.614;2023-08-31T14:36:55;18.90;99.90
50570;DHT22;36525;49.398;7.614;2023-08-31T14:39:24;19.90;99.90
50570;DHT22;36525;49.398;7.614;2023-08-31T14:41:58;20.10;99.90
50570;DHT22;36525;49.398;7.614;2023-08-31T14:44:26;20.40;99.90
50570;DHT22;36525;49.398;7.614;2023-08-31T14:46:53;20.30;99.90
50570;DHT22;36525;49.398;7.614;2023-08-31T14:49:23;20.10;99.90
50570;DHT22;36525;49.398;7.614;2023-08-31T14:51:52;19.90;99.90
50570;DHT22;36525;49.398;7.614;2023-08-31T14:54:22;20.00;99.90
50570;DHT22;36525;49.398;7.614;2023-08-31T14:56:50;20.00;99.90
50570;DHT22;36525;49.398;7.614;2023-08-31T14:59:20;19.80;99.90
50570;DHT22;36525;49.398;7.614;2023-08-31T15:01:51;19.70;99.90
50570;DHT22;36525;49.398;7.614;2023-08-31T15:04:18;19.50;99.90
50570;DHT22;36525;49.398;7.614;2023-08-31T15:06:45;19.30;99.90
50570;DHT22;36525;49.398;7.614;2023-08-31T15:09:13;18.80;99.90
50570;DHT22;36525;49.398;7.614;2023-08-31T15:11:43;18.30;99.90
50570;DHT22;36525;49.398;7.614;2023-08-31T15:14:11;18.10;99.90
50570;DHT22;36525;49.398;7.614;2023-08-31T15:16:38;18.00;99.90
50570;DHT22;36525;49.398;7.614;2023-08-31T15:19:05;17.80;99.90
50570;DHT22;36525;49.398;7.614;2023-08-31T15:21:33;17.80;99.90
50570;DHT22;36525;49.398;7.614;2023-08-31T15:24:01;17.80;99.90
50570;DHT22;36525;49.398;7.614;2023-08-31T15:26:31;17.70;99.90
50570;DHT22;36525;49.398;7.614;2023-08-31T15:28:59;17.40;99.90
50570;DHT22;36525;49.398;7.614;2023-08-31T15:31:26;17.30;99.90
50570;DHT22;36525;49.398;7.614;2023-08-31T15:33:54;17.30;99.90
50570;DHT22;36525;49.398;7.614;2023-08-31T15:36:21;17.20;99.90
50570;DHT22;36525;49.398;7.614;2023-08-31T15:38:48;17.30;99.90
50570;DHT22;36525;49.398;7.614;2023-08-31T15:41:16;17.40;99.90
50570;DHT22;36525;49.398;7.614;2023-08-31T15:43:43;17.50;99.90
50570;DHT22;36525;49.398;7.614;2023-08-31T15:46:10;17.60;99.90
50570;DHT22;36525;49.398;7.614;2023-08-31T15:48:37;17.70;99.90
50570;DHT22;36525;49.398;7.614;2023-08-31T15:51:04;17.90;99.90
50570;DHT22;36525;49.398;7.614;2023-08-31T15:53:34;18.00;99.90